Time;durP1;ratioP1;P1;durP2;ratioP2;P2;SDS_P1;SDS_P2;PMS_P1;PMS_P2;Temp;Humidity;BMP_temperature;BMP_pressure;BME280_temperature;BME280_humidity;BME280_pressure;Samples;Min_cycle;Max_cycle;Signal;HPM_P1;HPM_P2
2022/11/27 00:01:27;;;;;;;;;;;4.90;99.90;;;;;;5094854;28;20350;-68
2022/11/27 00:03:53;;;;;;;;;;;4.90;99.90;;;;;;5094586;28;19915;-68
2022/11/27 00:06:19;;;;;;;;;;;4.80;99.90;;;;;;5094757;28;19908;-68
2022/11/27 00:08:45;;;;;;;;;;;4.70;99.90;;;;;;5094475;28;20384;-68
2022/11/27 00:11:12;;;;;;;;;;;4.60;99.90;;;;;;5076269;28;19908;-68
2022/11/27 00:13:38;;;;;;;;;;;4.60;99.90;;;;;;5094641;28;20411;-68
2022/11/27 00:16:04;;;;;;;;;;;4.60;99.90;;;;;;5094567;28;19912;-68
2022/11/27 00:18:29;;;;;;;;;;;4.60;99.90;;;;;;5094219;28;20338;-68
2022/11/27 00:20:55;;;;;;;;;;;4.50;99.90;;;;;;5094248;28;19915;-68
2022/11/27 00:23:20;;;;;;;;;;;4.30;99.90;;;;;;5094373;28;20365;-68
2022/11/27 00:25:48;;;;;;;;;;;4.30;99.90;;;;;;5094167;28;19908;-68
2022/11/27 00:28:14;;;;;;;;;;;4.20;99.90;;;;;;5094395;28;20328;-68
2022/11/27 00:30:39;;;;;;;;;;;4.10;99.90;;;;;;5094144;28;19912;-68
2022/11/27 00:33:05;;;;;;;;;;;4.10;99.90;;;;;;5094066;28;20421;-68
2022/11/27 00:35:30;;;;;;;;;;;4.10;99.90;;;;;;5059223;28;20282;-68
2022/11/27 00:37:56;;;;;;;;;;;4.00;99.90;;;;;;5093924;28;20277;-68
2022/11/27 00:40:21;;;;;;;;;;;3.70;99.90;;;;;;5093991;28;19920;-68
2022/11/27 00:42:47;;;;;;;;;;;3.60;99.90;;;;;;5093890;28;19947;-68
2022/11/27 00:45:12;;;;;;;;;;;3.50;99.90;;;;;;5093926;28;19908;-68
2022/11/27 00:47:37;;;;;;;;;;;3.50;99.90;;;;;;5094150;28;20311;-68
2022/11/27 00:50:03;;;;;;;;;;;3.50;99.90;;;;;;5093837;28;19914;-68
2022/11/27 00:52:29;;;;;;;;;;;3.50;99.90;;;;;;5075627;28;19965;-68
2022/11/27 00:54:54;;;;;;;;;;;3.50;99.90;;;;;;5093789;28;19931;-68
2022/11/27 00:57:19;;;;;;;;;;;3.50;99.90;;;;;;5093508;28;19981;-69
2022/11/27 00:59:45;;;;;;;;;;;3.50;99.90;;;;;;5093737;28;19908;-68
2022/11/27 01:02:10;;;;;;;;;;;3.60;99.90;;;;;;5093999;28;19923;-69
2022/11/27 01:04:36;;;;;;;;;;;3.50;99.90;;;;;;5093646;28;19908;-68
2022/11/27 01:07:01;;;;;;;;;;;3.50;99.90;;;;;;5093641;28;19919;-69
2022/11/27 01:09:27;;;;;;;;;;;3.50;99.90;;;;;;5093948;28;19985;-68
2022/11/27 01:11:52;;;;;;;;;;;3.50;99.90;;;;;;5093878;28;19908;-68
2022/11/27 01:14:18;;;;;;;;;;;3.50;99.90;;;;;;5093607;28;20380;-68
2022/11/27 01:16:43;;;;;;;;;;;3.40;99.90;;;;;;5093781;28;20095;-68
2022/11/27 01:19:10;;;;;;;;;;;3.30;99.90;;;;;;5093536;28;19908;-68
2022/11/27 01:21:35;;;;;;;;;;;3.20;99.90;;;;;;5093535;28;19909;-68
2022/11/27 01:24:02;;;;;;;;;;;3.10;99.90;;;;;;5093540;28;19959;-68
2022/11/27 01:26:27;;;;;;;;;;;3.10;99.90;;;;;;5093574;28;19912;-68
2022/11/27 01:28:54;;;;;;;;;;;3.00;99.90;;;;;;5093486;28;19999;-69
2022/11/27 01:31:21;;;;;;;;;;;3.00;99.90;;;;;;5093473;28;20365;-68
2022/11/27 01:33:47;;;;;;;;;;;2.90;99.90;;;;;;5093405;28;19931;-68
2022/11/27 01:36:13;;;;;;;;;;;2.90;99.90;;;;;;5093398;28;19908;-68
2022/11/27 01:38:39;;;;;;;;;;;2.80;99.90;;;;;;5093573;28;20385;-68
2022/11/27 01:41:08;;;;;;;;;;;2.70;99.90;;;;;;5093617;28;19908;-68
2022/11/27 01:43:42;;;;;;;;;;;2.70;99.90;;;;;;5093329;28;19912;-68
2022/11/27 01:46:16;;;;;;;;;;;2.60;99.90;;;;;;5093559;28;19908;-68
2022/11/27 01:48:42;;;;;;;;;;;2.60;99.90;;;;;;5093250;28;19912;-69
2022/11/27 01:51:07;;;;;;;;;;;2.60;99.90;;;;;;5093526;28;19908;-68
2022/11/27 01:53:33;;;;;;;;;;;2.70;99.90;;;;;;5093265;28;19908;-68
2022/11/27 01:55:59;;;;;;;;;;;2.80;99.90;;;;;;5093499;28;19940;-68
2022/11/27 01:58:26;;;;;;;;;;;2.90;99.90;;;;;;5071503;28;20019;-68
2022/11/27 02:00:52;;;;;;;;;;;3.00;99.90;;;;;;5073228;28;19916;-68
2022/11/27 02:03:17;;;;;;;;;;;2.90;99.90;;;;;;5073226;28;19916;-69
2022/11/27 02:05:43;;;;;;;;;;;2.90;99.90;;;;;;5075633;28;19971;-69
2022/11/27 02:08:11;;;;;;;;;;;2.80;99.90;;;;;;5076559;28;19909;-68
2022/11/27 02:10:44;;;;;;;;;;;2.70;99.90;;;;;;5076739;28;20277;-68
2022/11/27 02:13:13;;;;;;;;;;;2.70;99.90;;;;;;5076437;28;19915;-68
2022/11/27 02:15:43;;;;;;;;;;;2.60;99.90;;;;;;5076448;28;19916;-68
2022/11/27 02:18:28;;;;;;;;;;;2.50;99.90;;;;;;5076249;28;20006;-68
2022/11/27 02:21:01;;;;;;;;;;;2.40;99.90;;;;;;5076422;28;19909;-68
2022/11/27 02:23:35;;;;;;;;;;;2.40;99.90;;;;;;5076523;28;20378;-68
2022/11/27 02:26:20;;;;;;;;;;;2.60;99.90;;;;;;5109314;28;20429;-68
2022/11/27 02:29:02;;;;;;;;;;;2.50;99.90;;;;;;5076185;28;19961;-69
2022/11/27 02:31:48;;;;;;;;;;;2.50;99.90;;;;;;5076215;28;20061;-68
2022/11/27 02:34:19;;;;;;;;;;;2.60;99.90;;;;;;5076068;28;20289;-68
2022/11/27 02:36:48;;;;;;;;;;;2.60;99.90;;;;;;5076321;28;19971;-68
2022/11/27 02:39:16;;;;;;;;;;;2.60;99.90;;;;;;5075961;28;19968;-68
2022/11/27 02:41:46;;;;;;;;;;;2.60;99.90;;;;;;5075973;28;19920;-68
2022/11/27 02:44:12;;;;;;;;;;;2.70;99.90;;;;;;5076151;28;20351;-68
2022/11/27 02:46:38;;;;;;;;;;;2.70;99.90;;;;;;5075836;28;19958;-68
2022/11/27 02:49:07;;;;;;;;;;;2.70;99.90;;;;;;5075801;28;19916;-68
2022/11/27 02:51:37;;;;;;;;;;;2.80;99.90;;;;;;5075742;28;19958;-68
2022/11/27 02:54:05;;;;;;;;;;;2.70;99.90;;;;;;5075957;28;20273;-68
2022/11/27 02:56:31;;;;;;;;;;;2.80;99.90;;;;;;5078183;28;19908;-68
2022/11/27 02:58:59;;;;;;;;;;;2.80;99.90;;;;;;5095782;28;19918;-68
2022/11/27 03:01:26;;;;;;;;;;;2.80;99.90;;;;;;5095812;28;20401;-68
2022/11/27 03:03:54;;;;;;;;;;;2.80;99.90;;;;;;5095787;28;19912;-68
2022/11/27 03:06:23;;;;;;;;;;;2.70;99.90;;;;;;5095671;28;19915;-68
2022/11/27 03:08:54;;;;;;;;;;;2.70;99.90;;;;;;5095892;28;19908;-68
2022/11/27 03:11:20;;;;;;;;;;;2.70;99.90;;;;;;5095834;28;19955;-68
2022/11/27 03:13:48;;;;;;;;;;;2.70;99.90;;;;;;5095512;28;19915;-68
2022/11/27 03:16:19;;;;;;;;;;;2.70;99.90;;;;;;5095464;28;20381;-68
2022/11/27 03:18:54;;;;;;;;;;;2.60;99.90;;;;;;5095609;28;19912;-68
2022/11/27 03:21:33;;;;;;;;;;;2.70;99.90;;;;;;5095395;28;19915;-68
2022/11/27 03:23:59;;;;;;;;;;;2.70;99.90;;;;;;5095328;28;20385;-68
2022/11/27 03:26:25;;;;;;;;;;;2.70;99.90;;;;;;5095540;28;19957;-68
2022/11/27 03:28:51;;;;;;;;;;;2.70;99.90;;;;;;5095515;28;19915;-68
2022/11/27 03:31:16;;;;;;;;;;;2.70;99.90;;;;;;5095195;28;19912;-68
2022/11/27 03:33:42;;;;;;;;;;;2.60;99.90;;;;;;5095154;28;20281;-68
2022/11/27 03:36:16;;;;;;;;;;;2.60;99.90;;;;;;5095078;28;19908;-68
2022/11/27 03:38:42;;;;;;;;;;;2.60;99.90;;;;;;5095000;28;19916;-68
2022/11/27 03:41:13;;;;;;;;;;;2.60;99.90;;;;;;5095286;28;19908;-68
2022/11/27 03:43:43;;;;;;;;;;;2.60;99.90;;;;;;5094952;28;19908;-68
2022/11/27 03:46:10;;;;;;;;;;;2.60;99.90;;;;;;5095166;28;19914;-68
2022/11/27 03:48:48;;;;;;;;;;;2.60;99.90;;;;;;5094839;28;19914;-68
2022/11/27 03:51:18;;;;;;;;;;;2.50;99.90;;;;;;5094787;28;19954;-68
2022/11/27 03:53:51;;;;;;;;;;;2.50;99.90;;;;;;5094720;28;19915;-68
2022/11/27 03:56:25;;;;;;;;;;;2.40;99.90;;;;;;5094568;28;19908;-68
2022/11/27 03:58:55;;;;;;;;;;;2.30;99.90;;;;;;5094597;28;19965;-68
2022/11/27 04:01:22;;;;;;;;;;;2.30;99.90;;;;;;5076436;28;19916;-68
2022/11/27 04:03:48;;;;;;;;;;;2.30;99.90;;;;;;5094832;28;19908;-68
2022/11/27 04:06:13;;;;;;;;;;;2.30;99.90;;;;;;5094454;28;20003;-68
2022/11/27 04:08:39;;;;;;;;;;;2.20;99.90;;;;;;5094532;28;19915;-68
2022/11/27 04:11:04;;;;;;;;;;;2.20;99.90;;;;;;5094688;28;20304;-68
2022/11/27 04:13:30;;;;;;;;;;;2.20;99.90;;;;;;5094436;28;19962;-68
2022/11/27 04:15:58;;;;;;;;;;;2.10;99.90;;;;;;5094368;28;20408;-68
2022/11/27 04:18:24;;;;;;;;;;;2.10;99.90;;;;;;5094345;28;19912;-68
2022/11/27 04:20:49;;;;;;;;;;;2.10;99.90;;;;;;5094277;28;20358;-68
2022/11/27 04:23:14;;;;;;;;;;;2.10;99.90;;;;;;5094243;28;19915;-68
2022/11/27 04:25:40;;;;;;;;;;;2.10;99.90;;;;;;5094147;28;19962;-68
2022/11/27 04:28:05;;;;;;;;;;;2.20;99.90;;;;;;5093734;28;19915;-68
2022/11/27 04:30:31;;;;;;;;;;;2.20;99.90;;;;;;5076114;28;19954;-68
2022/11/27 04:32:56;;;;;;;;;;;2.20;99.90;;;;;;5094108;28;19915;-68
2022/11/27 04:35:22;;;;;;;;;;;2.20;99.90;;;;;;5094333;28;19908;-68
2022/11/27 04:37:47;;;;;;;;;;;2.30;99.90;;;;;;5094235;28;19919;-68
2022/11/27 04:40:13;;;;;;;;;;;2.20;99.90;;;;;;5094254;28;19908;-68
2022/11/27 04:42:38;;;;;;;;;;;2.30;99.90;;;;;;5093953;28;19912;-68
2022/11/27 04:45:04;;;;;;;;;;;2.20;99.90;;;;;;5093961;28;20381;-68
2022/11/27 04:47:29;;;;;;;;;;;2.20;99.90;;;;;;5075889;28;19908;-68
2022/11/27 04:49:55;;;;;;;;;;;2.20;99.90;;;;;;5093892;28;19908;-68
2022/11/27 04:52:20;;;;;;;;;;;2.20;99.90;;;;;;5094097;28;20018;-68
2022/11/27 04:54:45;;;;;;;;;;;2.20;99.90;;;;;;5093787;28;19965;-68
2022/11/27 04:57:11;;;;;;;;;;;2.20;99.90;;;;;;5093505;28;19974;-68
2022/11/27 04:59:37;;;;;;;;;;;2.10;99.90;;;;;;5094020;28;19916;-68
2022/11/27 05:02:02;;;;;;;;;;;2.10;99.90;;;;;;5093984;28;20408;-68
2022/11/27 05:04:28;;;;;;;;;;;2.10;99.90;;;;;;5094006;28;19913;-68
2022/11/27 05:06:54;;;;;;;;;;;2.10;99.90;;;;;;5093686;28;20369;-68
2022/11/27 05:09:19;;;;;;;;;;;2.20;99.90;;;;;;5093947;28;19951;-68
2022/11/27 05:11:45;;;;;;;;;;;2.20;99.90;;;;;;5093664;28;19955;-68
2022/11/27 05:14:18;;;;;;;;;;;2.20;99.90;;;;;;5093657;28;19908;-68
2022/11/27 05:16:45;;;;;;;;;;;2.20;99.90;;;;;;5093884;28;19908;-68
2022/11/27 05:19:11;;;;;;;;;;;2.20;99.90;;;;;;5075475;28;19912;-68
2022/11/27 05:21:36;;;;;;;;;;;2.20;99.90;;;;;;5075491;28;19908;-68
2022/11/27 05:24:02;;;;;;;;;;;2.20;99.90;;;;;;5093803;28;19919;-68
2022/11/27 05:26:28;;;;;;;;;;;2.20;99.90;;;;;;5093567;28;19995;-68
2022/11/27 05:28:53;;;;;;;;;;;2.20;99.90;;;;;;5093799;28;19993;-68
2022/11/27 05:31:19;;;;;;;;;;;2.20;99.90;;;;;;5093746;28;19908;-68
2022/11/27 05:33:44;;;;;;;;;;;2.30;99.90;;;;;;5093405;28;19908;-68
2022/11/27 05:36:10;;;;;;;;;;;2.40;99.90;;;;;;5093432;28;19911;-68
2022/11/27 05:38:35;;;;;;;;;;;2.40;99.90;;;;;;5093589;28;19912;-68
2022/11/27 05:41:01;;;;;;;;;;;2.40;99.90;;;;;;5096742;28;19908;-68
2022/11/27 05:43:26;;;;;;;;;;;2.50;99.90;;;;;;5097279;28;19951;-68
2022/11/27 05:45:51;;;;;;;;;;;2.50;99.90;;;;;;5097245;28;19919;-68
2022/11/27 05:48:17;;;;;;;;;;;2.60;99.90;;;;;;5097490;28;19916;-68
2022/11/27 05:50:42;;;;;;;;;;;2.60;99.90;;;;;;5097490;28;19908;-68
2022/11/27 05:53:08;;;;;;;;;;;2.60;99.90;;;;;;5097191;28;19915;-68
2022/11/27 05:55:33;;;;;;;;;;;2.60;99.90;;;;;;5097045;28;19908;-68
2022/11/27 05:57:59;;;;;;;;;;;2.60;99.90;;;;;;5096758;28;19920;-68
2022/11/27 06:00:25;;;;;;;;;;;2.60;99.90;;;;;;5096961;28;19912;-68
2022/11/27 06:02:51;;;;;;;;;;;2.60;99.90;;;;;;5096942;28;19908;-68
2022/11/27 06:05:16;;;;;;;;;;;2.60;99.90;;;;;;5096897;28;19914;-68
2022/11/27 06:07:42;;;;;;;;;;;2.50;99.90;;;;;;5097094;28;20324;-68
2022/11/27 06:10:08;;;;;;;;;;;2.50;99.90;;;;;;5096817;28;20369;-68
2022/11/27 06:12:33;;;;;;;;;;;2.50;99.90;;;;;;5097001;28;19915;-68
2022/11/27 06:14:59;;;;;;;;;;;2.50;99.90;;;;;;5096719;28;20387;-68
2022/11/27 06:17:24;;;;;;;;;;;2.60;99.90;;;;;;5096518;28;19962;-68
2022/11/27 06:19:50;;;;;;;;;;;2.70;99.90;;;;;;5096601;28;19908;-68
2022/11/27 06:22:16;;;;;;;;;;;2.70;99.90;;;;;;5078765;28;19991;-68
2022/11/27 06:24:41;;;;;;;;;;;2.80;99.90;;;;;;5096546;28;19946;-68
2022/11/27 06:27:06;;;;;;;;;;;2.80;99.90;;;;;;5096518;28;20267;-68
2022/11/27 06:29:32;;;;;;;;;;;2.80;99.90;;;;;;5096427;28;20288;-68
2022/11/27 06:31:57;;;;;;;;;;;2.80;99.90;;;;;;5096371;28;19968;-68
2022/11/27 06:34:23;;;;;;;;;;;2.80;99.90;;;;;;5096341;28;19908;-68
2022/11/27 06:36:49;;;;;;;;;;;2.90;99.90;;;;;;5096282;28;19909;-68
2022/11/27 06:39:15;;;;;;;;;;;2.80;99.90;;;;;;5096435;28;19912;-68
2022/11/27 06:41:41;;;;;;;;;;;2.90;99.90;;;;;;5096191;28;19962;-68
2022/11/27 06:44:08;;;;;;;;;;;2.90;99.90;;;;;;5096417;28;19914;-68
2022/11/27 06:46:33;;;;;;;;;;;2.90;99.90;;;;;;5096080;28;19986;-68
2022/11/27 06:48:59;;;;;;;;;;;2.90;99.90;;;;;;5096165;28;20400;-68
2022/11/27 06:51:27;;;;;;;;;;;3.00;99.90;;;;;;5077657;28;19908;-68
2022/11/27 06:53:53;;;;;;;;;;;3.00;99.90;;;;;;5095955;28;19916;-68
2022/11/27 06:56:19;;;;;;;;;;;3.00;99.90;;;;;;5095687;28;20274;-68
2022/11/27 06:58:49;;;;;;;;;;;3.10;99.90;;;;;;5095763;28;19912;-68
2022/11/27 07:01:15;;;;;;;;;;;3.20;99.90;;;;;;5095770;28;19909;-68
2022/11/27 07:03:41;;;;;;;;;;;3.20;99.90;;;;;;5095791;28;20282;-68
2022/11/27 07:06:07;;;;;;;;;;;3.30;99.90;;;;;;5095692;28;19908;-68
2022/11/27 07:08:33;;;;;;;;;;;3.30;99.90;;;;;;5077639;28;20438;-68
2022/11/27 07:11:01;;;;;;;;;;;3.30;99.90;;;;;;5095754;28;19912;-68
2022/11/27 07:13:27;;;;;;;;;;;3.40;99.90;;;;;;5095584;28;19909;-68
2022/11/27 07:15:53;;;;;;;;;;;3.40;99.90;;;;;;5095496;28;19959;-68
2022/11/27 07:18:18;;;;;;;;;;;3.40;99.90;;;;;;5095393;28;20071;-68
2022/11/27 07:20:49;;;;;;;;;;;3.40;99.90;;;;;;5095724;28;19915;-68
2022/11/27 07:23:15;;;;;;;;;;;3.40;99.90;;;;;;5095659;28;20262;-68
2022/11/27 07:25:40;;;;;;;;;;;3.50;99.90;;;;;;5095591;28;19957;-68
2022/11/27 07:28:06;;;;;;;;;;;3.50;99.90;;;;;;5095358;28;20271;-69
2022/11/27 07:30:31;;;;;;;;;;;3.70;99.90;;;;;;5095217;28;19912;-68
2022/11/27 07:32:56;;;;;;;;;;;3.80;99.90;;;;;;5095451;28;19908;-68
2022/11/27 07:35:22;;;;;;;;;;;3.90;99.90;;;;;;5095156;28;19959;-68
2022/11/27 07:37:47;;;;;;;;;;;4.00;99.90;;;;;;5095285;28;19912;-68
2022/11/27 07:40:13;;;;;;;;;;;4.10;99.90;;;;;;5095057;28;19931;-68
2022/11/27 07:42:39;;;;;;;;;;;4.30;99.90;;;;;;5095005;28;19908;-68
2022/11/27 07:45:05;;;;;;;;;;;4.40;99.90;;;;;;5095022;28;20354;-68
2022/11/27 07:47:30;;;;;;;;;;;4.40;99.90;;;;;;5094927;28;19908;-68
2022/11/27 07:49:59;;;;;;;;;;;4.50;99.90;;;;;;5094876;28;19915;-68
2022/11/27 07:52:24;;;;;;;;;;;4.70;99.90;;;;;;5095086;28;20389;-68
2022/11/27 07:54:50;;;;;;;;;;;4.90;99.90;;;;;;5094811;28;19908;-69
2022/11/27 07:57:15;;;;;;;;;;;5.30;99.90;;;;;;5094431;28;19927;-68
2022/11/27 07:59:41;;;;;;;;;;;5.70;99.90;;;;;;5094715;28;19908;-68
2022/11/27 08:02:08;;;;;;;;;;;6.30;99.90;;;;;;5093950;28;19908;-68
2022/11/27 08:04:33;;;;;;;;;;;7.10;99.90;;;;;;5076477;28;19915;-68
2022/11/27 08:06:59;;;;;;;;;;;7.80;99.90;;;;;;5094573;28;20288;-68
2022/11/27 08:09:24;;;;;;;;;;;8.00;99.90;;;;;;5094540;28;19908;-69
2022/11/27 08:11:50;;;;;;;;;;;7.90;99.90;;;;;;5094758;28;19908;-68
2022/11/27 08:14:18;;;;;;;;;;;7.80;99.90;;;;;;5094725;28;19908;-69
2022/11/27 08:16:43;;;;;;;;;;;7.70;99.90;;;;;;5076254;28;19908;-69
2022/11/27 08:19:09;;;;;;;;;;;7.50;99.90;;;;;;5094296;28;20053;-69
2022/11/27 08:21:34;;;;;;;;;;;7.40;99.90;;;;;;5094573;28;19908;-69
2022/11/27 08:24:00;;;;;;;;;;;7.10;99.90;;;;;;5094538;28;19908;-68
2022/11/27 08:26:27;;;;;;;;;;;7.00;99.90;;;;;;5094227;28;19908;-69
2022/11/27 08:28:53;;;;;;;;;;;6.90;99.90;;;;;;5094454;28;19958;-68
2022/11/27 08:31:19;;;;;;;;;;;6.90;99.90;;;;;;5094185;28;19908;-69
2022/11/27 08:33:45;;;;;;;;;;;6.90;99.90;;;;;;5094165;28;19930;-69
2022/11/27 08:36:11;;;;;;;;;;;6.90;99.90;;;;;;5094051;28;20373;-69
2022/11/27 08:38:36;;;;;;;;;;;6.90;99.90;;;;;;5094268;28;19912;-69
2022/11/27 08:41:03;;;;;;;;;;;7.10;99.90;;;;;;5094378;28;19947;-68
2022/11/27 08:43:28;;;;;;;;;;;7.20;99.90;;;;;;5094131;28;19958;-69
2022/11/27 08:45:54;;;;;;;;;;;7.30;99.90;;;;;;5075795;28;20285;-69
2022/11/27 08:48:20;;;;;;;;;;;7.50;99.90;;;;;;5093960;28;19908;-69
2022/11/27 08:50:46;;;;;;;;;;;7.60;99.90;;;;;;5094153;28;20062;-68
2022/11/27 08:53:12;;;;;;;;;;;7.70;99.90;;;;;;5093872;28;19936;-68
2022/11/27 08:55:37;;;;;;;;;;;7.70;99.90;;;;;;5093851;28;19908;-68
2022/11/27 08:58:03;;;;;;;;;;;7.80;99.90;;;;;;5075690;28;19927;-69
2022/11/27 09:00:29;;;;;;;;;;;7.80;99.90;;;;;;5093817;28;19908;-69
2022/11/27 09:02:54;;;;;;;;;;;7.90;99.90;;;;;;5093727;28;20391;-68
2022/11/27 09:05:20;;;;;;;;;;;8.00;99.90;;;;;;5093770;28;19945;-69
2022/11/27 09:07:45;;;;;;;;;;;8.10;99.90;;;;;;5093684;28;19908;-68
2022/11/27 09:10:11;;;;;;;;;;;8.20;99.90;;;;;;5093927;28;19931;-69
2022/11/27 09:12:36;;;;;;;;;;;8.30;99.90;;;;;;5093665;28;19978;-69
2022/11/27 09:15:02;;;;;;;;;;;8.60;99.90;;;;;;5096980;28;19916;-69
2022/11/27 09:17:29;;;;;;;;;;;9.20;99.90;;;;;;5062977;28;19936;-69
2022/11/27 09:19:54;;;;;;;;;;;10.70;99.90;;;;;;5097654;28;19956;-69
2022/11/27 09:22:19;;;;;;;;;;;11.80;99.90;;;;;;5097680;28;19948;-69
2022/11/27 09:24:45;;;;;;;;;;;12.30;99.90;;;;;;5097626;28;19908;-69
2022/11/27 09:27:11;;;;;;;;;;;12.40;99.90;;;;;;5079811;28;19915;-69
2022/11/27 09:29:36;;;;;;;;;;;12.40;99.90;;;;;;5097595;28;19914;-69
2022/11/27 09:32:02;;;;;;;;;;;12.20;99.90;;;;;;5097513;28;19966;-69
2022/11/27 09:34:27;;;;;;;;;;;12.40;99.90;;;;;;5097498;28;19912;-69
2022/11/27 09:36:53;;;;;;;;;;;12.50;99.90;;;;;;5097377;28;19915;-69
2022/11/27 09:39:19;;;;;;;;;;;12.40;99.90;;;;;;5097543;28;20014;-69
2022/11/27 09:41:47;;;;;;;;;;;11.90;99.90;;;;;;5097600;28;19987;-69
2022/11/27 09:44:33;;;;;;;;;;;11.40;99.90;;;;;;5097626;28;19908;-69
2022/11/27 09:47:03;;;;;;;;;;;11.00;99.90;;;;;;5097168;28;19912;-69
2022/11/27 09:49:34;;;;;;;;;;;10.60;99.90;;;;;;5097547;28;20384;-69
2022/11/27 09:52:19;;;;;;;;;;;10.30;99.90;;;;;;5097247;28;19908;-69
2022/11/27 09:55:05;;;;;;;;;;;10.20;99.90;;;;;;5097033;28;19993;-69
2022/11/27 09:57:33;;;;;;;;;;;10.10;99.90;;;;;;5096682;28;19920;-69
2022/11/27 10:00:02;;;;;;;;;;;9.90;99.90;;;;;;5097378;28;20273;-69
2022/11/27 10:02:29;;;;;;;;;;;9.80;99.90;;;;;;5097013;28;19919;-69
2022/11/27 10:04:56;;;;;;;;;;;9.80;99.90;;;;;;5097006;28;19908;-69
2022/11/27 10:07:28;;;;;;;;;;;9.90;99.90;;;;;;5097232;28;19912;-69
2022/11/27 10:10:14;;;;;;;;;;;9.80;99.90;;;;;;5097123;28;19908;-69
2022/11/27 10:12:46;;;;;;;;;;;9.70;99.90;;;;;;5096679;28;19908;-69
2022/11/27 10:15:15;;;;;;;;;;;9.80;99.90;;;;;;5096762;28;19919;-69
2022/11/27 10:17:52;;;;;;;;;;;9.80;99.90;;;;;;5096928;28;19955;-69
2022/11/27 10:20:38;;;;;;;;;;;9.80;99.90;;;;;;5096723;28;19915;-69
2022/11/27 10:23:13;;;;;;;;;;;9.80;99.90;;;;;;5096532;28;19908;-69
2022/11/27 10:25:43;;;;;;;;;;;9.80;99.90;;;;;;5096249;28;20286;-69
2022/11/27 10:28:12;;;;;;;;;;;9.80;99.90;;;;;;5096840;28;19908;-69
2022/11/27 10:30:43;;;;;;;;;;;9.80;99.90;;;;;;5096426;28;19957;-69
2022/11/27 10:33:14;;;;;;;;;;;9.90;99.90;;;;;;5096387;28;20377;-69
2022/11/27 10:35:41;;;;;;;;;;;9.90;99.90;;;;;;5096607;28;19912;-69
2022/11/27 10:38:11;;;;;;;;;;;10.00;99.90;;;;;;5096202;28;20373;-69
2022/11/27 10:40:57;;;;;;;;;;;10.00;99.90;;;;;;5096304;28;19916;-69
2022/11/27 10:43:23;;;;;;;;;;;10.00;99.90;;;;;;5096005;28;19912;-69
2022/11/27 10:45:55;;;;;;;;;;;10.00;99.90;;;;;;5096142;28;19962;-69
2022/11/27 10:48:20;;;;;;;;;;;10.00;99.90;;;;;;5096096;28;19914;-68
2022/11/27 10:50:46;;;;;;;;;;;10.00;99.90;;;;;;5096064;28;19995;-68
2022/11/27 10:53:16;;;;;;;;;;;10.00;99.90;;;;;;5096284;28;19919;-69
2022/11/27 10:55:54;;;;;;;;;;;10.00;99.90;;;;;;5095997;28;19912;-69
2022/11/27 10:58:39;;;;;;;;;;;10.00;99.90;;;;;;5095729;28;19927;-69
2022/11/27 11:01:07;;;;;;;;;;;10.10;99.90;;;;;;5095681;28;19921;-69
2022/11/27 11:03:32;;;;;;;;;;;10.20;99.90;;;;;;5095818;28;19934;-68
2022/11/27 11:06:00;;;;;;;;;;;10.30;99.90;;;;;;5096012;28;20396;-69
2022/11/27 11:08:27;;;;;;;;;;;10.40;99.90;;;;;;5095950;28;20439;-69
2022/11/27 11:10:59;;;;;;;;;;;10.40;99.90;;;;;;5095909;28;20159;-69
2022/11/27 11:13:26;;;;;;;;;;;10.40;99.90;;;;;;5077515;28;19908;-68
2022/11/27 11:15:54;;;;;;;;;;;10.40;99.90;;;;;;5077932;28;19908;-68
2022/11/27 11:18:21;;;;;;;;;;;10.40;99.90;;;;;;5095699;28;19935;-69
2022/11/27 11:20:48;;;;;;;;;;;10.40;99.90;;;;;;5095704;28;19999;-69
2022/11/27 11:23:19;;;;;;;;;;;10.40;99.90;;;;;;5095377;28;19954;-69
2022/11/27 11:25:48;;;;;;;;;;;10.30;99.90;;;;;;5095583;28;19914;-69
2022/11/27 11:28:15;;;;;;;;;;;10.20;99.90;;;;;;5095316;28;19908;-68
2022/11/27 11:30:40;;;;;;;;;;;10.20;99.90;;;;;;5095503;28;20362;-69
2022/11/27 11:33:11;;;;;;;;;;;10.30;99.90;;;;;;5095218;28;19915;-69
2022/11/27 11:35:36;;;;;;;;;;;10.20;99.90;;;;;;5095172;28;19916;-69
2022/11/27 11:38:04;;;;;;;;;;;10.20;99.90;;;;;;5094258;28;19923;-69
2022/11/27 11:40:30;;;;;;;;;;;10.20;99.90;;;;;;5095381;28;19908;-69
2022/11/27 11:42:59;;;;;;;;;;;10.30;99.90;;;;;;5095263;28;19918;-69
2022/11/27 11:45:25;;;;;;;;;;;10.20;99.90;;;;;;5094932;28;20361;-69
2022/11/27 11:47:52;;;;;;;;;;;10.20;99.90;;;;;;5094940;28;20254;-69
2022/11/27 11:53:31;;;;;;;;;;;10.20;99.90;;;;;;5071044;28;19919;-67
2022/11/27 11:56:00;;;;;;;;;;;10.20;99.90;;;;;;5070964;28;19912;-67
2022/11/27 11:58:30;;;;;;;;;;;10.20;99.90;;;;;;5071171;28;20389;-67
2022/11/27 12:01:05;;;;;;;;;;;10.20;99.90;;;;;;5071147;28;20370;-67
2022/11/27 12:03:51;;;;;;;;;;;10.20;99.90;;;;;;5070874;28;19909;-67
2022/11/27 12:06:27;;;;;;;;;;;10.30;99.90;;;;;;5070696;28;19916;-67
2022/11/27 12:09:12;;;;;;;;;;;10.30;99.90;;;;;;5070837;28;19909;-68
2022/11/27 12:11:43;;;;;;;;;;;10.40;99.90;;;;;;5070595;28;19912;-68
2022/11/27 12:14:14;;;;;;;;;;;10.40;99.90;;;;;;5070887;28;19916;-67
2022/11/27 12:17:01;;;;;;;;;;;10.40;99.90;;;;;;5070496;28;19916;-67
2022/11/27 12:19:46;;;;;;;;;;;10.40;99.90;;;;;;5070374;28;20318;-67
2022/11/27 12:22:21;;;;;;;;;;;10.40;99.90;;;;;;5070498;28;20313;-67
2022/11/27 12:25:06;;;;;;;;;;;10.50;99.90;;;;;;5070442;28;20343;-67
2022/11/27 12:27:51;;;;;;;;;;;10.50;99.90;;;;;;5070323;28;20390;-67
2022/11/27 12:30:18;;;;;;;;;;;10.50;99.90;;;;;;5070176;28;19913;-67
2022/11/27 12:33:04;;;;;;;;;;;10.50;99.90;;;;;;5070074;28;19920;-67
2022/11/27 12:35:49;;;;;;;;;;;10.50;99.90;;;;;;5070267;28;20359;-67
2022/11/27 12:38:21;;;;;;;;;;;10.50;99.90;;;;;;5070081;28;20390;-67
2022/11/27 12:41:00;;;;;;;;;;;10.40;99.90;;;;;;5070074;28;19909;-67
2022/11/27 12:43:26;;;;;;;;;;;10.40;99.90;;;;;;5070002;28;19908;-67
2022/11/27 12:46:03;;;;;;;;;;;10.40;99.90;;;;;;5070210;28;19963;-68
2022/11/27 12:48:32;;;;;;;;;;;10.40;99.90;;;;;;5069873;28;20013;-67
2022/11/27 12:51:05;;;;;;;;;;;10.40;99.90;;;;;;5071714;28;19912;-67
2022/11/27 12:53:51;;;;;;;;;;;10.40;99.90;;;;;;5090398;28;19909;-67
2022/11/27 12:56:36;;;;;;;;;;;10.40;99.90;;;;;;5089910;28;20371;-67
2022/11/27 12:59:05;;;;;;;;;;;10.40;99.90;;;;;;5089761;28;20512;-67
2022/11/27 13:01:38;;;;;;;;;;;10.40;99.90;;;;;;5090191;28;19912;-67
2022/11/27 13:04:23;;;;;;;;;;;10.40;99.90;;;;;;5079195;28;19909;-67
2022/11/27 13:06:54;;;;;;;;;;;10.40;99.90;;;;;;5076583;28;19943;-67
2022/11/27 13:09:25;;;;;;;;;;;10.40;99.90;;;;;;5076557;28;20259;-67
2022/11/27 13:11:50;;;;;;;;;;;10.40;99.90;;;;;;5076093;28;19962;-67
2022/11/27 13:14:20;;;;;;;;;;;10.40;99.90;;;;;;5076492;28;19912;-68
2022/11/27 13:16:48;;;;;;;;;;;10.40;99.90;;;;;;5058318;28;20430;-67
2022/11/27 13:19:18;;;;;;;;;;;10.40;99.90;;;;;;5076111;28;19944;-67
2022/11/27 13:21:45;;;;;;;;;;;10.40;99.90;;;;;;5076366;28;20278;-67
2022/11/27 13:24:11;;;;;;;;;;;10.40;99.90;;;;;;5076292;28;20366;-67
2022/11/27 13:26:43;;;;;;;;;;;10.40;99.90;;;;;;5076020;28;19909;-67
2022/11/27 13:29:27;;;;;;;;;;;10.40;99.90;;;;;;5075926;28;19908;-67
2022/11/27 13:31:55;;;;;;;;;;;10.40;99.90;;;;;;5075793;28;19912;-67
2022/11/27 13:34:23;;;;;;;;;;;10.40;99.90;;;;;;5076121;28;20366;-67
2022/11/27 13:37:05;;;;;;;;;;;10.40;99.90;;;;;;5075809;28;19916;-67
2022/11/27 13:39:35;;;;;;;;;;;10.40;99.90;;;;;;5075709;28;19995;-68
2022/11/27 13:42:03;;;;;;;;;;;10.40;99.90;;;;;;5075914;28;19916;-67
2022/11/27 13:44:29;;;;;;;;;;;10.40;99.90;;;;;;5075692;28;19915;-67
2022/11/27 13:46:58;;;;;;;;;;;10.30;99.90;;;;;;5075866;28;19908;-67
2022/11/27 13:49:26;;;;;;;;;;;10.30;99.90;;;;;;5058032;28;19912;-67
2022/11/27 13:52:02;;;;;;;;;;;10.30;99.90;;;;;;5075209;28;19960;-67
2022/11/27 13:54:28;;;;;;;;;;;10.20;99.90;;;;;;5075471;28;20345;-67
2022/11/27 13:56:53;;;;;;;;;;;10.10;99.90;;;;;;5075407;28;19959;-67
2022/11/27 13:59:20;;;;;;;;;;;10.10;99.90;;;;;;5075367;28;19913;-67
2022/11/27 14:01:54;;;;;;;;;;;10.10;99.90;;;;;;5075588;28;19915;-67
2022/11/27 14:04:19;;;;;;;;;;;10.10;99.90;;;;;;5075235;28;19908;-68
2022/11/27 14:06:50;;;;;;;;;;;10.10;99.90;;;;;;5075383;28;20377;-67
2022/11/27 14:09:16;;;;;;;;;;;10.10;99.90;;;;;;5075421;28;20362;-68
2022/11/27 14:11:44;;;;;;;;;;;10.20;99.90;;;;;;5075070;28;19919;-68
2022/11/27 14:14:15;;;;;;;;;;;10.10;99.90;;;;;;5074882;28;19915;-68
2022/11/27 14:16:41;;;;;;;;;;;10.10;99.90;;;;;;5074773;28;19909;-67
2022/11/27 14:19:27;;;;;;;;;;;10.10;99.90;;;;;;5074827;28;19909;-68
2022/11/27 14:21:52;;;;;;;;;;;10.00;99.90;;;;;;5074669;28;20324;-68
2022/11/27 14:24:26;;;;;;;;;;;10.00;99.90;;;;;;5074801;28;19916;-68
2022/11/27 14:26:52;;;;;;;;;;;10.00;99.90;;;;;;5074697;28;19909;-69
2022/11/27 14:29:19;;;;;;;;;;;10.00;99.90;;;;;;5074714;28;19909;-68
2022/11/27 14:31:54;;;;;;;;;;;10.00;99.90;;;;;;5074835;28;20020;-68
2022/11/27 14:34:34;;;;;;;;;;;10.00;99.90;;;;;;5074938;28;19908;-69
2022/11/27 14:37:00;;;;;;;;;;;10.00;99.90;;;;;;5074574;28;19915;-68